sensor_id;sensor_type;location;lat;lon;timestamp;P1;durP1;ratioP1;P2;durP2;ratioP2
79036;SDS011;68434;59.896;30.474;2023-03-13T00:01:01;4.35;;;1.25;;
79036;SDS011;68434;59.896;30.474;2023-03-13T00:03:29;2.03;;;1.30;;
79036;SDS011;68434;59.896;30.474;2023-03-13T00:05:57;2.70;;;1.35;;
79036;SDS011;68434;59.896;30.474;2023-03-13T00:08:24;1.98;;;1.10;;
79036;SDS011;68434;59.896;30.474;2023-03-13T00:10:55;2.60;;;1.52;;
79036;SDS011;68434;59.896;30.474;2023-03-13T00:13:23;2.88;;;1.45;;
79036;SDS011;68434;59.896;30.474;2023-03-13T00:15:58;2.50;;;1.10;;
79036;SDS011;68434;59.896;30.474;2023-03-13T00:18:26;2.38;;;1.33;;
79036;SDS011;68434;59.896;30.474;2023-03-13T00:20:56;1.95;;;1.27;;
79036;SDS011;68434;59.896;30.474;2023-03-13T00:23:24;2.45;;;1.30;;
79036;SDS011;68434;59.896;30.474;2023-03-13T00:25:55;2.83;;;1.05;;
79036;SDS011;68434;59.896;30.474;2023-03-13T00:28:25;2.45;;;1.30;;
79036;SDS011;68434;59.896;30.474;2023-03-13T00:30:59;1.45;;;1.02;;
79036;SDS011;68434;59.896;30.474;2023-03-13T00:33:27;1.80;;;1.20;;
79036;SDS011;68434;59.896;30.474;2023-03-13T00:35:57;2.13;;;1.10;;
79036;SDS011;68434;59.896;30.474;2023-03-13T00:38:24;3.90;;;1.40;;
79036;SDS011;68434;59.896;30.474;2023-03-13T00:40:57;2.20;;;1.30;;
79036;SDS011;68434;59.896;30.474;2023-03-13T00:43:27;3.92;;;1.15;;
79036;SDS011;68434;59.896;30.474;2023-03-13T00:45:55;3.78;;;1.15;;
79036;SDS011;68434;59.896;30.474;2023-03-13T00:48:24;2.08;;;1.27;;
79036;SDS011;68434;59.896;30.474;2023-03-13T00:50:52;1.80;;;1.27;;
79036;SDS011;68434;59.896;30.474;2023-03-13T00:53:20;3.20;;;1.25;;
79036;SDS011;68434;59.896;30.474;2023-03-13T00:55:51;3.60;;;1.40;;
79036;SDS011;68434;59.896;30.474;2023-03-13T00:58:20;2.45;;;1.60;;
79036;SDS011;68434;59.896;30.474;2023-03-13T01:00:51;2.53;;;1.08;;
79036;SDS011;68434;59.896;30.474;2023-03-13T01:03:18;2.97;;;1.17;;
79036;SDS011;68434;59.896;30.474;2023-03-13T01:05:53;3.28;;;1.48;;
79036;SDS011;68434;59.896;30.474;2023-03-13T01:08:25;3.85;;;1.45;;
79036;SDS011;68434;59.896;30.474;2023-03-13T01:10:58;1.30;;;1.20;;
79036;SDS011;68434;59.896;30.474;2023-03-13T01:13:26;2.33;;;1.13;;
79036;SDS011;68434;59.896;30.474;2023-03-13T01:15:55;2.13;;;1.20;;
79036;SDS011;68434;59.896;30.474;2023-03-13T01:18:22;3.90;;;1.10;;
79036;SDS011;68434;59.896;30.474;2023-03-13T01:20:51;2.42;;;0.85;;
79036;SDS011;68434;59.896;30.474;2023-03-13T01:23:19;3.17;;;0.98;;
79036;SDS011;68434;59.896;30.474;2023-03-13T01:25:46;1.25;;;1.05;;
79036;SDS011;68434;59.896;30.474;2023-03-13T01:28:14;2.20;;;1.40;;
79036;SDS011;68434;59.896;30.474;2023-03-13T01:30:41;3.00;;;1.67;;
79036;SDS011;68434;59.896;30.474;2023-03-13T01:33:10;1.77;;;1.17;;
79036;SDS011;68434;59.896;30.474;2023-03-13T01:35:39;1.77;;;1.00;;
79036;SDS011;68434;59.896;30.474;2023-03-13T01:38:06;1.33;;;1.20;;
79036;SDS011;68434;59.896;30.474;2023-03-13T01:40:38;4.28;;;1.50;;
79036;SDS011;68434;59.896;30.474;2023-03-13T01:43:16;2.40;;;1.50;;
79036;SDS011;68434;59.896;30.474;2023-03-13T01:46:02;1.52;;;0.85;;
79036;SDS011;68434;59.896;30.474;2023-03-13T01:48:42;2.03;;;1.40;;
79036;SDS011;68434;59.896;30.474;2023-03-13T01:51:17;2.35;;;1.20;;
79036;SDS011;68434;59.896;30.474;2023-03-13T01:53:50;1.30;;;1.00;;
79036;SDS011;68434;59.896;30.474;2023-03-13T01:56:24;0.68;;;0.68;;
79036;SDS011;68434;59.896;30.474;2023-03-13T01:58:55;2.08;;;1.13;;
79036;SDS011;68434;59.896;30.474;2023-03-13T02:01:26;1.92;;;1.20;;
79036;SDS011;68434;59.896;30.474;2023-03-13T02:03:56;2.33;;;1.20;;
79036;SDS011;68434;59.896;30.474;2023-03-13T02:06:26;1.55;;;1.00;;
79036;SDS011;68434;59.896;30.474;2023-03-13T02:08:55;2.42;;;1.38;;
79036;SDS011;68434;59.896;30.474;2023-03-13T02:11:30;2.17;;;1.48;;
79036;SDS011;68434;59.896;30.474;2023-03-13T02:14:06;4.65;;;1.10;;
79036;SDS011;68434;59.896;30.474;2023-03-13T02:16:34;2.58;;;1.40;;
79036;SDS011;68434;59.896;30.474;2023-03-13T02:19:05;2.30;;;1.05;;
79036;SDS011;68434;59.896;30.474;2023-03-13T02:21:44;2.08;;;1.27;;
79036;SDS011;68434;59.896;30.474;2023-03-13T02:24:19;3.67;;;1.40;;
79036;SDS011;68434;59.896;30.474;2023-03-13T02:26:54;2.28;;;1.23;;
79036;SDS011;68434;59.896;30.474;2023-03-13T02:29:22;2.78;;;1.60;;
79036;SDS011;68434;59.896;30.474;2023-03-13T02:31:51;3.05;;;1.80;;
79036;SDS011;68434;59.896;30.474;2023-03-13T02:34:20;2.78;;;1.30;;
79036;SDS011;68434;59.896;30.474;2023-03-13T02:36:50;2.75;;;1.65;;
79036;SDS011;68434;59.896;30.474;2023-03-13T02:39:18;2.38;;;1.35;;
79036;SDS011;68434;59.896;30.474;2023-03-13T02:41:48;3.72;;;1.40;;
79036;SDS011;68434;59.896;30.474;2023-03-13T02:44:18;1.45;;;1.17;;
79036;SDS011;68434;59.896;30.474;2023-03-13T02:46:46;3.65;;;1.60;;
79036;SDS011;68434;59.896;30.474;2023-03-13T02:49:20;3.80;;;1.33;;
79036;SDS011;68434;59.896;30.474;2023-03-13T02:51:49;1.83;;;1.25;;
79036;SDS011;68434;59.896;30.474;2023-03-13T02:54:19;3.67;;;1.30;;
79036;SDS011;68434;59.896;30.474;2023-03-13T02:56:50;3.00;;;1.70;;
79036;SDS011;68434;59.896;30.474;2023-03-13T02:59:23;3.10;;;1.42;;
79036;SDS011;68434;59.896;30.474;2023-03-13T03:01:52;2.22;;;1.40;;
79036;SDS011;68434;59.896;30.474;2023-03-13T03:04:19;2.38;;;1.08;;
79036;SDS011;68434;59.896;30.474;2023-03-13T03:06:52;3.13;;;1.38;;
79036;SDS011;68434;59.896;30.474;2023-03-13T03:09:20;1.90;;;1.00;;
79036;SDS011;68434;59.896;30.474;2023-03-13T03:11:50;1.77;;;1.25;;
79036;SDS011;68434;59.896;30.474;2023-03-13T03:14:18;2.45;;;1.50;;
79036;SDS011;68434;59.896;30.474;2023-03-13T03:16:48;1.40;;;1.10;;
79036;SDS011;68434;59.896;30.474;2023-03-13T03:19:15;2.80;;;1.40;;
79036;SDS011;68434;59.896;30.474;2023-03-13T03:21:43;2.63;;;1.40;;
79036;SDS011;68434;59.896;30.474;2023-03-13T03:24:11;3.80;;;1.85;;
79036;SDS011;68434;59.896;30.474;2023-03-13T03:26:38;3.20;;;2.17;;
79036;SDS011;68434;59.896;30.474;2023-03-13T03:29:15;4.40;;;1.75;;
79036;SDS011;68434;59.896;30.474;2023-03-13T03:31:48;2.15;;;1.38;;
79036;SDS011;68434;59.896;30.474;2023-03-13T03:34:16;2.45;;;1.42;;
79036;SDS011;68434;59.896;30.474;2023-03-13T03:36:45;3.25;;;1.33;;
79036;SDS011;68434;59.896;30.474;2023-03-13T03:39:12;3.08;;;1.30;;
79036;SDS011;68434;59.896;30.474;2023-03-13T03:41:40;3.15;;;1.50;;
79036;SDS011;68434;59.896;30.474;2023-03-13T03:44:08;3.45;;;1.42;;
79036;SDS011;68434;59.896;30.474;2023-03-13T03:46:53;3.53;;;1.58;;
79036;SDS011;68434;59.896;30.474;2023-03-13T03:49:21;2.97;;;1.58;;
79036;SDS011;68434;59.896;30.474;2023-03-13T03:51:49;4.90;;;1.85;;
79036;SDS011;68434;59.896;30.474;2023-03-13T03:54:22;3.38;;;1.88;;
79036;SDS011;68434;59.896;30.474;2023-03-13T03:56:50;3.75;;;1.75;;
79036;SDS011;68434;59.896;30.474;2023-03-13T03:59:17;3.65;;;1.60;;
79036;SDS011;68434;59.896;30.474;2023-03-13T04:01:46;3.63;;;1.40;;
79036;SDS011;68434;59.896;30.474;2023-03-13T04:04:20;3.60;;;1.50;;
79036;SDS011;68434;59.896;30.474;2023-03-13T04:06:52;3.03;;;1.60;;
79036;SDS011;68434;59.896;30.474;2023-03-13T04:09:19;1.98;;;1.20;;
79036;SDS011;68434;59.896;30.474;2023-03-13T04:11:47;3.15;;;1.35;;
79036;SDS011;68434;59.896;30.474;2023-03-13T04:14:14;4.47;;;1.65;;
79036;SDS011;68434;59.896;30.474;2023-03-13T04:16:42;5.43;;;1.60;;
79036;SDS011;68434;59.896;30.474;2023-03-13T04:19:09;1.60;;;0.82;;
79036;SDS011;68434;59.896;30.474;2023-03-13T04:21:38;1.80;;;1.15;;
79036;SDS011;68434;59.896;30.474;2023-03-13T04:24:09;2.58;;;1.70;;
79036;SDS011;68434;59.896;30.474;2023-03-13T04:26:39;1.65;;;1.20;;
79036;SDS011;68434;59.896;30.474;2023-03-13T04:29:07;2.55;;;1.50;;
79036;SDS011;68434;59.896;30.474;2023-03-13T04:31:57;3.65;;;1.63;;
79036;SDS011;68434;59.896;30.474;2023-03-13T04:34:54;2.67;;;1.05;;
79036;SDS011;68434;59.896;30.474;2023-03-13T04:37:40;1.85;;;1.13;;
79036;SDS011;68434;59.896;30.474;2023-03-13T04:40:26;3.40;;;1.02;;
79036;SDS011;68434;59.896;30.474;2023-03-13T04:43:25;3.33;;;1.30;;
79036;SDS011;68434;59.896;30.474;2023-03-13T04:46:16;2.60;;;1.20;;
79036;SDS011;68434;59.896;30.474;2023-03-13T04:48:59;2.25;;;1.27;;
79036;SDS011;68434;59.896;30.474;2023-03-13T04:52:02;3.03;;;1.40;;
79036;SDS011;68434;59.896;30.474;2023-03-13T04:54:50;3.72;;;1.80;;
79036;SDS011;68434;59.896;30.474;2023-03-13T04:57:44;3.78;;;1.63;;
79036;SDS011;68434;59.896;30.474;2023-03-13T05:00:30;2.80;;;1.40;;
79036;SDS011;68434;59.896;30.474;2023-03-13T05:03:16;4.97;;;1.58;;
79036;SDS011;68434;59.896;30.474;2023-03-13T05:06:01;4.05;;;1.60;;
79036;SDS011;68434;59.896;30.474;2023-03-13T05:08:52;3.88;;;1.75;;
79036;SDS011;68434;59.896;30.474;2023-03-13T05:11:29;4.53;;;1.77;;
79036;SDS011;68434;59.896;30.474;2023-03-13T05:14:17;2.00;;;1.23;;
79036;SDS011;68434;59.896;30.474;2023-03-13T05:17:11;7.15;;;2.90;;
79036;SDS011;68434;59.896;30.474;2023-03-13T05:19:58;5.72;;;2.25;;
79036;SDS011;68434;59.896;30.474;2023-03-13T05:22:48;7.20;;;2.38;;
79036;SDS011;68434;59.896;30.474;2023-03-13T05:25:51;4.15;;;2.20;;
79036;SDS011;68434;59.896;30.474;2023-03-13T05:28:29;4.97;;;1.83;;
79036;SDS011;68434;59.896;30.474;2023-03-13T05:31:15;7.70;;;2.97;;
79036;SDS011;68434;59.896;30.474;2023-03-13T05:33:51;2.85;;;1.77;;
79036;SDS011;68434;59.896;30.474;2023-03-13T05:36:28;4.80;;;2.55;;
79036;SDS011;68434;59.896;30.474;2023-03-13T05:39:21;5.15;;;2.67;;
79036;SDS011;68434;59.896;30.474;2023-03-13T05:42:09;3.90;;;1.70;;
79036;SDS011;68434;59.896;30.474;2023-03-13T05:44:45;5.65;;;1.65;;
79036;SDS011;68434;59.896;30.474;2023-03-13T05:47:16;2.05;;;1.02;;
79036;SDS011;68434;59.896;30.474;2023-03-13T05:50:02;3.42;;;1.90;;
79036;SDS011;68434;59.896;30.474;2023-03-13T05:52:32;4.43;;;2.00;;
79036;SDS011;68434;59.896;30.474;2023-03-13T05:55:29;3.38;;;1.40;;
79036;SDS011;68434;59.896;30.474;2023-03-13T05:58:13;6.30;;;2.63;;
79036;SDS011;68434;59.896;30.474;2023-03-13T06:01:06;5.85;;;2.30;;
79036;SDS011;68434;59.896;30.474;2023-03-13T06:03:47;5.55;;;2.83;;
79036;SDS011;68434;59.896;30.474;2023-03-13T06:06:16;4.82;;;2.90;;
79036;SDS011;68434;59.896;30.474;2023-03-13T06:08:50;4.20;;;2.25;;
79036;SDS011;68434;59.896;30.474;2023-03-13T06:11:18;4.50;;;2.30;;
79036;SDS011;68434;59.896;30.474;2023-03-13T06:13:46;3.65;;;2.00;;
79036;SDS011;68434;59.896;30.474;2023-03-13T06:16:25;3.90;;;2.17;;
79036;SDS011;68434;59.896;30.474;2023-03-13T06:18:56;2.55;;;1.60;;
79036;SDS011;68434;59.896;30.474;2023-03-13T06:21:24;4.55;;;1.70;;
79036;SDS011;68434;59.896;30.474;2023-03-13T06:23:51;2.60;;;1.55;;
79036;SDS011;68434;59.896;30.474;2023-03-13T06:26:20;2.33;;;1.30;;
79036;SDS011;68434;59.896;30.474;2023-03-13T06:28:49;2.40;;;1.30;;
79036;SDS011;68434;59.896;30.474;2023-03-13T06:31:16;2.55;;;1.38;;
79036;SDS011;68434;59.896;30.474;2023-03-13T06:33:45;3.20;;;1.42;;
79036;SDS011;68434;59.896;30.474;2023-03-13T06:36:12;3.95;;;1.80;;
79036;SDS011;68434;59.896;30.474;2023-03-13T06:38:39;3.10;;;1.75;;
79036;SDS011;68434;59.896;30.474;2023-03-13T06:41:07;3.15;;;1.60;;
79036;SDS011;68434;59.896;30.474;2023-03-13T06:43:35;3.47;;;1.40;;
79036;SDS011;68434;59.896;30.474;2023-03-13T06:46:05;2.95;;;1.80;;
79036;SDS011;68434;59.896;30.474;2023-03-13T06:48:32;5.18;;;1.42;;
79036;SDS011;68434;59.896;30.474;2023-03-13T06:51:01;3.92;;;2.15;;
79036;SDS011;68434;59.896;30.474;2023-03-13T06:55:59;3.40;;;1.80;;
79036;SDS011;68434;59.896;30.474;2023-03-13T06:58:27;3.25;;;2.08;;
79036;SDS011;68434;59.896;30.474;2023-03-13T07:00:54;3.10;;;1.50;;
79036;SDS011;68434;59.896;30.474;2023-03-13T07:03:22;3.40;;;1.50;;
79036;SDS011;68434;59.896;30.474;2023-03-13T07:05:53;3.38;;;1.70;;
79036;SDS011;68434;59.896;30.474;2023-03-13T07:08:23;2.90;;;1.70;;
79036;SDS011;68434;59.896;30.474;2023-03-13T07:10:50;2.88;;;1.50;;
79036;SDS011;68434;59.896;30.474;2023-03-13T07:13:18;3.60;;;1.83;;
79036;SDS011;68434;59.896;30.474;2023-03-13T07:15:46;3.50;;;1.60;;
79036;SDS011;68434;59.896;30.474;2023-03-13T07:18:14;3.50;;;1.67;;
79036;SDS011;68434;59.896;30.474;2023-03-13T07:20:41;3.10;;;1.90;;
79036;SDS011;68434;59.896;30.474;2023-03-13T07:23:09;4.10;;;1.80;;
79036;SDS011;68434;59.896;30.474;2023-03-13T07:25:38;5.20;;;2.40;;
79036;SDS011;68434;59.896;30.474;2023-03-13T07:28:05;3.22;;;1.90;;
79036;SDS011;68434;59.896;30.474;2023-03-13T07:30:33;3.97;;;2.30;;
79036;SDS011;68434;59.896;30.474;2023-03-13T07:33:00;3.88;;;1.70;;
79036;SDS011;68434;59.896;30.474;2023-03-13T07:35:27;6.15;;;2.67;;
79036;SDS011;68434;59.896;30.474;2023-03-13T07:37:55;7.07;;;2.90;;
79036;SDS011;68434;59.896;30.474;2023-03-13T07:40:22;5.93;;;2.80;;
79036;SDS011;68434;59.896;30.474;2023-03-13T07:42:51;8.55;;;2.50;;
79036;SDS011;68434;59.896;30.474;2023-03-13T07:45:18;4.22;;;2.60;;
79036;SDS011;68434;59.896;30.474;2023-03-13T07:47:46;5.65;;;2.58;;
79036;SDS011;68434;59.896;30.474;2023-03-13T07:50:13;6.35;;;2.45;;
79036;SDS011;68434;59.896;30.474;2023-03-13T07:52:40;5.28;;;2.20;;
79036;SDS011;68434;59.896;30.474;2023-03-13T07:55:08;5.13;;;2.25;;
79036;SDS011;68434;59.896;30.474;2023-03-13T07:57:35;4.68;;;2.53;;
79036;SDS011;68434;59.896;30.474;2023-03-13T08:00:05;5.28;;;2.55;;
79036;SDS011;68434;59.896;30.474;2023-03-13T08:02:40;3.47;;;1.92;;
79036;SDS011;68434;59.896;30.474;2023-03-13T08:05:08;4.38;;;2.30;;
79036;SDS011;68434;59.896;30.474;2023-03-13T08:07:35;3.88;;;2.60;;
79036;SDS011;68434;59.896;30.474;2023-03-13T08:10:03;5.65;;;2.70;;
79036;SDS011;68434;59.896;30.474;2023-03-13T08:12:31;5.07;;;2.70;;
79036;SDS011;68434;59.896;30.474;2023-03-13T08:14:58;3.80;;;2.25;;
79036;SDS011;68434;59.896;30.474;2023-03-13T08:17:29;4.15;;;2.47;;
79036;SDS011;68434;59.896;30.474;2023-03-13T08:19:56;6.25;;;3.08;;
79036;SDS011;68434;59.896;30.474;2023-03-13T08:22:24;5.03;;;2.83;;
79036;SDS011;68434;59.896;30.474;2023-03-13T08:24:51;3.95;;;2.22;;
79036;SDS011;68434;59.896;30.474;2023-03-13T08:27:18;3.30;;;2.00;;
79036;SDS011;68434;59.896;30.474;2023-03-13T08:29:46;6.60;;;1.90;;
79036;SDS011;68434;59.896;30.474;2023-03-13T08:32:13;4.35;;;2.10;;
79036;SDS011;68434;59.896;30.474;2023-03-13T08:34:44;3.85;;;1.92;;
79036;SDS011;68434;59.896;30.474;2023-03-13T08:37:13;4.55;;;2.72;;
79036;SDS011;68434;59.896;30.474;2023-03-13T08:39:41;4.30;;;2.08;;
79036;SDS011;68434;59.896;30.474;2023-03-13T08:42:10;4.35;;;1.60;;
79036;SDS011;68434;59.896;30.474;2023-03-13T08:44:38;4.50;;;1.95;;
79036;SDS011;68434;59.896;30.474;2023-03-13T08:47:06;1.67;;;1.02;;
79036;SDS011;68434;59.896;30.474;2023-03-13T08:49:34;3.10;;;1.45;;
79036;SDS011;68434;59.896;30.474;2023-03-13T08:52:04;2.85;;;1.40;;
79036;SDS011;68434;59.896;30.474;2023-03-13T08:54:32;2.78;;;1.27;;
79036;SDS011;68434;59.896;30.474;2023-03-13T08:56:59;3.85;;;1.70;;
79036;SDS011;68434;59.896;30.474;2023-03-13T08:59:27;4.10;;;1.60;;
79036;SDS011;68434;59.896;30.474;2023-03-13T09:01:55;3.25;;;1.50;;
79036;SDS011;68434;59.896;30.474;2023-03-13T09:04:22;4.97;;;1.30;;
79036;SDS011;68434;59.896;30.474;2023-03-13T09:06:49;4.00;;;1.50;;
79036;SDS011;68434;59.896;30.474;2023-03-13T09:09:18;1.45;;;1.10;;
79036;SDS011;68434;59.896;30.474;2023-03-13T09:11:45;2.60;;;1.13;;
79036;SDS011;68434;59.896;30.474;2023-03-13T09:14:13;2.53;;;1.45;;
79036;SDS011;68434;59.896;30.474;2023-03-13T09:16:40;2.92;;;1.80;;
79036;SDS011;68434;59.896;30.474;2023-03-13T09:19:11;1.38;;;0.90;;
79036;SDS011;68434;59.896;30.474;2023-03-13T09:21:38;4.03;;;1.67;;
79036;SDS011;68434;59.896;30.474;2023-03-13T09:24:06;1.90;;;1.00;;
79036;SDS011;68434;59.896;30.474;2023-03-13T09:26:35;1.77;;;1.25;;
79036;SDS011;68434;59.896;30.474;2023-03-13T09:29:02;3.35;;;1.52;;
79036;SDS011;68434;59.896;30.474;2023-03-13T09:31:30;2.28;;;1.45;;
79036;SDS011;68434;59.896;30.474;2023-03-13T09:33:59;2.42;;;1.40;;
79036;SDS011;68434;59.896;30.474;2023-03-13T09:36:26;2.55;;;1.38;;
79036;SDS011;68434;59.896;30.474;2023-03-13T09:38:54;2.70;;;1.35;;
79036;SDS011;68434;59.896;30.474;2023-03-13T09:41:25;2.70;;;1.20;;
79036;SDS011;68434;59.896;30.474;2023-03-13T09:44:01;1.75;;;0.90;;
79036;SDS011;68434;59.896;30.474;2023-03-13T09:46:35;2.45;;;1.02;;
79036;SDS011;68434;59.896;30.474;2023-03-13T09:49:08;2.17;;;1.20;;
79036;SDS011;68434;59.896;30.474;2023-03-13T09:51:41;3.08;;;1.33;;
79036;SDS011;68434;59.896;30.474;2023-03-13T09:54:16;2.22;;;1.30;;
79036;SDS011;68434;59.896;30.474;2023-03-13T09:56:51;2.17;;;1.17;;
79036;SDS011;68434;59.896;30.474;2023-03-13T09:59:26;3.75;;;1.65;;
79036;SDS011;68434;59.896;30.474;2023-03-13T10:01:59;3.17;;;1.35;;
79036;SDS011;68434;59.896;30.474;2023-03-13T10:04:31;3.25;;;1.20;;
79036;SDS011;68434;59.896;30.474;2023-03-13T10:07:04;1.55;;;1.20;;
79036;SDS011;68434;59.896;30.474;2023-03-13T10:09:36;2.47;;;1.33;;
79036;SDS011;68434;59.896;30.474;2023-03-13T10:12:06;4.68;;;1.58;;
79036;SDS011;68434;59.896;30.474;2023-03-13T10:14:44;3.30;;;1.13;;
79036;SDS011;68434;59.896;30.474;2023-03-13T10:17:21;2.05;;;1.20;;
79036;SDS011;68434;59.896;30.474;2023-03-13T10:19:57;2.88;;;1.20;;
79036;SDS011;68434;59.896;30.474;2023-03-13T10:22:32;2.00;;;1.05;;
79036;SDS011;68434;59.896;30.474;2023-03-13T10:25:02;1.55;;;0.95;;
79036;SDS011;68434;59.896;30.474;2023-03-13T10:27:46;1.98;;;1.00;;
79036;SDS011;68434;59.896;30.474;2023-03-13T10:30:18;2.33;;;1.20;;
79036;SDS011;68434;59.896;30.474;2023-03-13T10:32:50;4.03;;;1.50;;
79036;SDS011;68434;59.896;30.474;2023-03-13T10:35:21;1.42;;;0.88;;
79036;SDS011;68434;59.896;30.474;2023-03-13T10:37:49;2.63;;;1.40;;
79036;SDS011;68434;59.896;30.474;2023-03-13T10:40:28;2.50;;;1.10;;
79036;SDS011;68434;59.896;30.474;2023-03-13T10:42:59;4.70;;;1.05;;
79036;SDS011;68434;59.896;30.474;2023-03-13T10:45:32;3.38;;;1.80;;
79036;SDS011;68434;59.896;30.474;2023-03-13T10:48:02;2.15;;;1.05;;
79036;SDS011;68434;59.896;30.474;2023-03-13T10:50:37;1.80;;;1.00;;
79036;SDS011;68434;59.896;30.474;2023-03-13T10:53:20;2.97;;;1.40;;
79036;SDS011;68434;59.896;30.474;2023-03-13T10:55:51;2.47;;;1.38;;
79036;SDS011;68434;59.896;30.474;2023-03-13T10:58:21;1.73;;;1.20;;
79036;SDS011;68434;59.896;30.474;2023-03-13T11:00:54;2.80;;;1.25;;
79036;SDS011;68434;59.896;30.474;2023-03-13T11:03:40;2.47;;;1.30;;
79036;SDS011;68434;59.896;30.474;2023-03-13T11:06:20;3.97;;;1.33;;
79036;SDS011;68434;59.896;30.474;2023-03-13T11:08:57;1.63;;;1.08;;
79036;SDS011;68434;59.896;30.474;2023-03-13T11:11:25;1.77;;;1.13;;
79036;SDS011;68434;59.896;30.474;2023-03-13T11:14:05;3.45;;;1.40;;
79036;SDS011;68434;59.896;30.474;2023-03-13T11:16:38;4.05;;;1.48;;
79036;SDS011;68434;59.896;30.474;2023-03-13T11:19:27;3.63;;;1.52;;
79036;SDS011;68434;59.896;30.474;2023-03-13T11:22:01;5.43;;;1.40;;
79036;SDS011;68434;59.896;30.474;2023-03-13T11:24:41;2.55;;;1.30;;
79036;SDS011;68434;59.896;30.474;2023-03-13T11:27:15;4.20;;;1.60;;
79036;SDS011;68434;59.896;30.474;2023-03-13T11:29:54;4.50;;;1.42;;
79036;SDS011;68434;59.896;30.474;2023-03-13T11:32:36;3.35;;;1.38;;
79036;SDS011;68434;59.896;30.474;2023-03-13T11:37:43;2.58;;;1.30;;
79036;SDS011;68434;59.896;30.474;2023-03-13T11:40:14;4.90;;;1.15;;
79036;SDS011;68434;59.896;30.474;2023-03-13T11:45:56;2.53;;;1.10;;
79036;SDS011;68434;59.896;30.474;2023-03-13T11:51:17;2.70;;;1.02;;
79036;SDS011;68434;59.896;30.474;2023-03-13T11:53:57;5.97;;;1.27;;
79036;SDS011;68434;59.896;30.474;2023-03-13T11:56:35;2.03;;;1.13;;
79036;SDS011;68434;59.896;30.474;2023-03-13T12:02:03;2.42;;;1.25;;
79036;SDS011;68434;59.896;30.474;2023-03-13T12:04:43;1.55;;;1.00;;
79036;SDS011;68434;59.896;30.474;2023-03-13T12:07:17;1.48;;;1.33;;
79036;SDS011;68434;59.896;30.474;2023-03-13T12:09:48;2.00;;;1.00;;
79036;SDS011;68434;59.896;30.474;2023-03-13T12:12:22;4.47;;;1.50;;
79036;SDS011;68434;59.896;30.474;2023-03-13T12:14:59;2.63;;;1.20;;
79036;SDS011;68434;59.896;30.474;2023-03-13T12:17:34;1.98;;;1.10;;
79036;SDS011;68434;59.896;30.474;2023-03-13T12:20:09;4.05;;;1.55;;
79036;SDS011;68434;59.896;30.474;2023-03-13T12:22:45;4.78;;;1.70;;
79036;SDS011;68434;59.896;30.474;2023-03-13T12:25:17;5.43;;;1.77;;
79036;SDS011;68434;59.896;30.474;2023-03-13T12:27:48;6.07;;;1.98;;
79036;SDS011;68434;59.896;30.474;2023-03-13T12:30:21;2.08;;;1.20;;
79036;SDS011;68434;59.896;30.474;2023-03-13T12:32:57;3.35;;;1.40;;
79036;SDS011;68434;59.896;30.474;2023-03-13T12:35:31;0.88;;;0.82;;
79036;SDS011;68434;59.896;30.474;2023-03-13T12:38:00;6.10;;;1.40;;
79036;SDS011;68434;59.896;30.474;2023-03-13T12:40:33;3.47;;;1.30;;
79036;SDS011;68434;59.896;30.474;2023-03-13T12:43:09;4.07;;;1.60;;
79036;SDS011;68434;59.896;30.474;2023-03-13T12:45:45;2.13;;;1.35;;
79036;SDS011;68434;59.896;30.474;2023-03-13T12:51:35;10.95;;;1.95;;
79036;SDS011;68434;59.896;30.474;2023-03-13T12:54:25;3.85;;;1.10;;
79036;SDS011;68434;59.896;30.474;2023-03-13T12:57:09;2.20;;;1.10;;
79036;SDS011;68434;59.896;30.474;2023-03-13T12:59:46;4.72;;;1.52;;
79036;SDS011;68434;59.896;30.474;2023-03-13T13:02:18;1.80;;;1.05;;
79036;SDS011;68434;59.896;30.474;2023-03-13T13:04:48;4.07;;;1.25;;
79036;SDS011;68434;59.896;30.474;2023-03-13T13:07:24;3.30;;;1.40;;
79036;SDS011;68434;59.896;30.474;2023-03-13T13:10:00;2.25;;;1.15;;
79036;SDS011;68434;59.896;30.474;2023-03-13T13:12:31;2.13;;;1.05;;
79036;SDS011;68434;59.896;30.474;2023-03-13T13:15:03;2.92;;;1.48;;
79036;SDS011;68434;59.896;30.474;2023-03-13T13:17:48;2.28;;;1.25;;
79036;SDS011;68434;59.896;30.474;2023-03-13T13:23:17;2.55;;;1.23;;
79036;SDS011;68434;59.896;30.474;2023-03-13T13:32:32;2.97;;;1.60;;
79036;SDS011;68434;59.896;30.474;2023-03-13T13:35:23;4.60;;;1.42;;
79036;SDS011;68434;59.896;30.474;2023-03-13T13:44:20;3.75;;;1.80;;
79036;SDS011;68434;59.896;30.474;2023-03-13T13:46:53;4.95;;;1.70;;
79036;SDS011;68434;59.896;30.474;2023-03-13T13:49:25;3.88;;;1.67;;
79036;SDS011;68434;59.896;30.474;2023-03-13T13:57:52;4.57;;;1.70;;
79036;SDS011;68434;59.896;30.474;2023-03-13T14:00:26;4.32;;;1.73;;
79036;SDS011;68434;59.896;30.474;2023-03-13T14:03:00;3.10;;;1.60;;
79036;SDS011;68434;59.896;30.474;2023-03-13T14:05:29;3.35;;;1.75;;
79036;SDS011;68434;59.896;30.474;2023-03-13T14:07:59;5.53;;;2.10;;
79036;SDS011;68434;59.896;30.474;2023-03-13T14:10:36;7.57;;;2.15;;
79036;SDS011;68434;59.896;30.474;2023-03-13T14:13:12;3.58;;;2.22;;
79036;SDS011;68434;59.896;30.474;2023-03-13T14:15:42;5.45;;;1.95;;
79036;SDS011;68434;59.896;30.474;2023-03-13T14:18:12;4.82;;;2.47;;
79036;SDS011;68434;59.896;30.474;2023-03-13T14:20:53;5.80;;;2.45;;
79036;SDS011;68434;59.896;30.474;2023-03-13T14:23:33;3.90;;;2.22;;
79036;SDS011;68434;59.896;30.474;2023-03-13T14:26:11;3.25;;;1.90;;
79036;SDS011;68434;59.896;30.474;2023-03-13T14:28:44;3.20;;;1.27;;
79036;SDS011;68434;59.896;30.474;2023-03-13T14:31:23;3.78;;;1.23;;
79036;SDS011;68434;59.896;30.474;2023-03-13T14:33:54;2.55;;;1.30;;
79036;SDS011;68434;59.896;30.474;2023-03-13T14:38:50;1.40;;;1.00;;
79036;SDS011;68434;59.896;30.474;2023-03-13T14:41:21;2.95;;;1.30;;
79036;SDS011;68434;59.896;30.474;2023-03-13T14:43:52;3.85;;;1.63;;
79036;SDS011;68434;59.896;30.474;2023-03-13T14:46:25;3.55;;;1.33;;
79036;SDS011;68434;59.896;30.474;2023-03-13T14:48:56;1.40;;;1.25;;
79036;SDS011;68434;59.896;30.474;2023-03-13T14:51:31;3.05;;;1.42;;
79036;SDS011;68434;59.896;30.474;2023-03-13T14:53:59;3.97;;;1.58;;
79036;SDS011;68434;59.896;30.474;2023-03-13T14:56:32;3.90;;;1.65;;
79036;SDS011;68434;59.896;30.474;2023-03-13T14:59:07;4.20;;;1.45;;
79036;SDS011;68434;59.896;30.474;2023-03-13T15:01:40;1.50;;;1.10;;
79036;SDS011;68434;59.896;30.474;2023-03-13T15:04:08;4.20;;;1.42;;
79036;SDS011;68434;59.896;30.474;2023-03-13T15:06:35;3.83;;;1.98;;
79036;SDS011;68434;59.896;30.474;2023-03-13T15:09:13;3.20;;;1.75;;
79036;SDS011;68434;59.896;30.474;2023-03-13T15:11:55;4.72;;;2.05;;
79036;SDS011;68434;59.896;30.474;2023-03-13T15:14:31;3.90;;;1.70;;
79036;SDS011;68434;59.896;30.474;2023-03-13T15:17:14;2.92;;;1.42;;
79036;SDS011;68434;59.896;30.474;2023-03-13T15:19:46;2.85;;;1.60;;
79036;SDS011;68434;59.896;30.474;2023-03-13T15:22:15;3.40;;;1.50;;
79036;SDS011;68434;59.896;30.474;2023-03-13T15:24:44;3.72;;;1.70;;
79036;SDS011;68434;59.896;30.474;2023-03-13T15:27:13;3.85;;;1.80;;
79036;SDS011;68434;59.896;30.474;2023-03-13T15:29:45;4.32;;;1.90;;
79036;SDS011;68434;59.896;30.474;2023-03-13T15:32:15;4.68;;;1.92;;
79036;SDS011;68434;59.896;30.474;2023-03-13T15:34:49;5.85;;;1.85;;
79036;SDS011;68434;59.896;30.474;2023-03-13T15:37:17;5.20;;;1.92;;
79036;SDS011;68434;59.896;30.474;2023-03-13T15:39:45;3.55;;;2.35;;
79036;SDS011;68434;59.896;30.474;2023-03-13T15:42:14;5.22;;;2.30;;
79036;SDS011;68434;59.896;30.474;2023-03-13T15:44:43;6.57;;;2.92;;
79036;SDS011;68434;59.896;30.474;2023-03-13T15:47:14;5.78;;;2.85;;